createdAt,value
2018-07-20T00:00:23.291Z,23.00
2018-07-20T00:02:51.635Z,23.20
2018-07-20T00:05:19.954Z,23.40
2018-07-20T00:07:48.294Z,23.50
2018-07-20T00:10:16.802Z,23.60
2018-07-20T00:12:45.131Z,23.70
2018-07-20T00:15:13.524Z,23.70
2018-07-20T00:17:41.916Z,23.70
2018-07-20T00:20:10.246Z,23.80
2018-07-20T00:22:38.618Z,23.80
2018-07-20T00:25:06.976Z,23.90
2018-07-20T00:27:35.282Z,23.90
2018-07-20T00:30:03.900Z,23.90
2018-07-20T00:32:32.216Z,23.90
2018-07-20T00:35:00.532Z,24.00
2018-07-20T00:37:28.931Z,24.00
2018-07-20T00:39:57.243Z,24.00
2018-07-20T00:42:25.732Z,24.00
2018-07-20T00:44:54.100Z,24.00
2018-07-20T00:47:22.416Z,24.00
2018-07-20T00:49:50.731Z,24.00
2018-07-20T00:52:19.241Z,24.10
2018-07-20T00:54:47.621Z,24.10
2018-07-20T00:57:15.986Z,24.10
2018-07-20T00:59:44.583Z,24.10
2018-07-20T01:02:12.916Z,24.10
2018-07-20T01:04:41.241Z,24.10
2018-07-20T01:07:09.715Z,24.20
2018-07-20T01:09:38.023Z,24.10
2018-07-20T01:12:06.448Z,24.20
2018-07-20T01:14:34.798Z,24.20
2018-07-20T01:17:03.127Z,24.20
2018-07-20T01:19:31.511Z,24.20
2018-07-20T01:21:59.883Z,24.20
2018-07-20T01:24:28.206Z,24.10
2018-07-20T01:26:56.535Z,24.20
2018-07-20T01:29:24.879Z,24.10
2018-07-20T01:31:53.206Z,24.20
2018-07-20T01:34:21.474Z,24.20
2018-07-20T01:36:49.833Z,24.20
2018-07-20T01:39:18.135Z,24.20
2018-07-20T01:41:46.484Z,24.20
2018-07-20T01:44:14.846Z,24.20
2018-07-20T01:46:43.165Z,24.20
2018-07-20T01:49:11.494Z,24.20
2018-07-20T01:51:39.858Z,24.20
2018-07-20T01:54:08.196Z,24.20
2018-07-20T01:56:36.511Z,24.20
2018-07-20T01:59:04.884Z,24.20
2018-07-20T02:01:33.281Z,24.30
2018-07-20T02:04:01.607Z,24.30
2018-07-20T02:06:29.949Z,24.20
2018-07-20T02:08:58.247Z,24.20
2018-07-20T02:11:26.566Z,24.20
2018-07-20T02:16:23.058Z,24.30
2018-07-20T02:18:51.456Z,24.30
2018-07-20T02:21:19.814Z,24.30
2018-07-20T02:23:48.133Z,24.30
2018-07-20T02:26:16.482Z,24.30
2018-07-20T02:28:44.812Z,24.30
2018-07-20T02:36:09.402Z,24.30
2018-07-20T02:38:37.775Z,24.30
2018-07-20T02:41:06.254Z,24.30
2018-07-20T02:43:34.855Z,24.30
2018-07-20T02:46:03.176Z,24.30
2018-07-20T02:48:31.508Z,24.30
2018-07-20T02:50:59.844Z,24.30
2018-07-20T02:53:28.228Z,24.30
2018-07-20T02:55:56.855Z,24.30
2018-07-20T03:00:53.510Z,24.30
2018-07-20T03:03:25.175Z,24.30
2018-07-20T03:05:53.490Z,24.30
2018-07-20T03:08:21.816Z,24.30
2018-07-20T03:10:50.143Z,24.30
2018-07-20T03:13:18.479Z,24.30
2018-07-20T03:15:46.869Z,24.30
2018-07-20T03:18:15.171Z,24.30
2018-07-20T03:20:43.542Z,24.30
2018-07-20T03:23:11.874Z,24.30
2018-07-20T03:25:40.216Z,24.30
2018-07-20T03:28:08.566Z,24.30
2018-07-20T03:30:36.911Z,24.30
2018-07-20T03:33:05.295Z,24.30
2018-07-20T03:35:33.622Z,24.30
2018-07-20T03:40:30.164Z,24.30
2018-07-20T03:45:26.833Z,24.30
2018-07-20T03:47:55.175Z,24.30
2018-07-20T03:50:23.518Z,24.30
2018-07-20T03:52:51.846Z,24.30
2018-07-20T03:57:48.300Z,24.30
2018-07-20T04:00:16.847Z,24.30
2018-07-20T04:02:45.228Z,24.30
2018-07-20T04:05:13.583Z,24.30
2018-07-20T04:07:41.890Z,24.30
2018-07-20T04:10:10.219Z,24.30
2018-07-20T04:12:38.550Z,24.30
2018-07-20T04:15:06.905Z,24.30
2018-07-20T04:17:42.512Z,24.30
2018-07-20T04:22:39.025Z,24.20
2018-07-20T04:25:07.503Z,24.30
2018-07-20T04:27:36.107Z,24.30
2018-07-20T04:30:07.898Z,24.30
2018-07-20T04:32:36.331Z,24.30
2018-07-20T04:35:04.664Z,24.30
2018-07-20T04:37:32.978Z,24.30
2018-07-20T04:40:01.311Z,24.30
2018-07-20T04:42:29.667Z,24.30
2018-07-20T04:44:57.982Z,24.30
2018-07-20T04:47:26.594Z,24.30
2018-07-20T04:49:55.220Z,24.30
2018-07-20T04:52:23.511Z,24.30
2018-07-20T04:54:51.846Z,24.30
2018-07-20T04:57:20.156Z,24.30
2018-07-20T04:59:48.529Z,24.30
2018-07-20T05:02:16.866Z,24.30
2018-07-20T05:04:45.219Z,24.30
2018-07-20T05:07:13.583Z,24.30
2018-07-20T05:09:41.932Z,24.30
2018-07-20T05:12:11.149Z,24.30
2018-07-20T05:14:39.482Z,24.30
2018-07-20T05:17:07.826Z,24.30
2018-07-20T05:19:36.169Z,24.30
2018-07-20T05:22:04.528Z,24.30
2018-07-20T05:24:32.843Z,24.30
2018-07-20T05:27:01.164Z,24.30
2018-07-20T05:29:29.531Z,24.30
2018-07-20T05:31:57.921Z,24.30
2018-07-20T05:34:26.272Z,24.30
2018-07-20T05:36:54.698Z,24.30
2018-07-20T05:39:23.006Z,24.30
2018-07-20T05:41:51.363Z,24.30
2018-07-20T05:44:19.714Z,24.30
2018-07-20T05:46:48.343Z,24.30
2018-07-20T05:49:16.656Z,24.30
2018-07-20T05:51:45.628Z,24.30
2018-07-20T05:54:13.997Z,24.30
2018-07-20T05:59:10.514Z,24.30
2018-07-20T06:01:38.866Z,24.30
2018-07-20T06:04:07.215Z,24.30
2018-07-20T06:06:35.524Z,24.40
2018-07-20T06:09:06.192Z,24.40
2018-07-20T06:14:02.636Z,24.10
2018-07-20T06:16:31.010Z,23.90
2018-07-20T06:18:59.464Z,23.90
2018-07-20T06:21:27.914Z,23.90
2018-07-20T06:23:56.271Z,24.00
2018-07-20T06:26:24.750Z,24.10
2018-07-20T06:28:53.100Z,24.20
2018-07-20T06:31:21.491Z,24.30
2018-07-20T06:33:49.831Z,24.30
2018-07-20T06:36:18.192Z,24.30
2018-07-20T06:38:46.591Z,24.40
2018-07-20T06:41:15.016Z,24.40
2018-07-20T06:43:43.379Z,24.40
2018-07-20T06:46:11.761Z,24.40
2018-07-20T06:48:40.112Z,24.40
2018-07-20T06:51:09.027Z,24.40
2018-07-20T06:56:05.539Z,24.40
2018-07-20T06:58:33.973Z,24.40
2018-07-20T07:01:02.331Z,24.50
2018-07-20T07:03:30.654Z,24.50
2018-07-20T07:08:27.118Z,24.50
2018-07-20T07:10:55.493Z,24.50
2018-07-20T07:13:23.859Z,24.60
2018-07-20T07:15:52.532Z,24.50
2018-07-20T07:18:20.874Z,24.60
2018-07-20T07:20:49.495Z,24.60
2018-07-20T07:23:17.868Z,24.60
2018-07-20T07:25:46.208Z,24.60
2018-07-20T07:28:14.545Z,24.60
2018-07-20T07:30:42.875Z,24.60
2018-07-20T07:33:11.599Z,24.70
2018-07-20T07:35:40.325Z,24.70
2018-07-20T07:38:08.708Z,24.70
2018-07-20T07:40:37.048Z,24.70
2018-07-20T07:43:05.378Z,24.70
2018-07-20T07:45:34.082Z,24.70
2018-07-20T07:48:02.391Z,24.70
2018-07-20T07:50:30.729Z,24.70
2018-07-20T07:52:59.075Z,24.80
2018-07-20T07:55:27.395Z,24.80
2018-07-20T07:57:55.702Z,24.80
2018-07-20T08:00:24.053Z,24.80
2018-07-20T08:02:52.366Z,24.80
2018-07-20T08:05:20.670Z,24.80
2018-07-20T08:07:49.002Z,24.80
2018-07-20T08:10:17.376Z,24.90
2018-07-20T08:12:45.664Z,24.90
2018-07-20T08:15:15.186Z,24.90
2018-07-20T08:17:44.539Z,24.90
2018-07-20T08:20:12.936Z,24.90
2018-07-20T08:22:41.614Z,24.90
2018-07-20T08:25:09.946Z,25.00
2018-07-20T08:27:38.238Z,25.00
2018-07-20T08:30:06.591Z,25.00
2018-07-20T08:32:34.898Z,25.00
2018-07-20T08:35:03.231Z,25.00
2018-07-20T08:37:31.553Z,25.00
2018-07-20T08:39:59.927Z,25.00
2018-07-20T08:42:28.206Z,25.00
2018-07-20T08:44:56.518Z,25.00
2018-07-20T08:47:24.815Z,25.00
2018-07-20T08:49:53.152Z,25.10
2018-07-20T08:52:21.444Z,25.10
2018-07-20T08:54:49.750Z,25.00
2018-07-20T08:57:18.075Z,25.10
2018-07-20T08:59:46.691Z,25.10
2018-07-20T09:02:15.010Z,25.10
2018-07-20T09:04:43.320Z,25.10
2018-07-20T09:07:11.654Z,25.10
2018-07-20T09:09:39.950Z,25.20
2018-07-20T09:12:08.705Z,25.10
2018-07-20T09:14:37.011Z,25.20
2018-07-20T09:17:05.312Z,25.20
2018-07-20T09:19:33.629Z,25.20
2018-07-20T09:24:30.287Z,25.20
2018-07-20T09:26:58.619Z,25.20
2018-07-20T09:29:26.946Z,25.20
2018-07-20T09:31:56.975Z,25.30
2018-07-20T09:34:25.306Z,25.30
2018-07-20T09:36:53.658Z,25.30
2018-07-20T09:39:21.991Z,25.30
2018-07-20T09:46:46.466Z,25.40
2018-07-20T09:49:14.808Z,25.40
2018-07-20T09:51:43.892Z,25.40
2018-07-20T09:54:12.237Z,25.40
2018-07-20T09:56:40.528Z,25.50
2018-07-20T09:59:08.837Z,25.50
2018-07-20T10:01:37.155Z,25.50
2018-07-20T10:04:05.616Z,25.50
2018-07-20T10:06:33.920Z,25.50
2018-07-20T10:09:02.202Z,25.50
2018-07-20T10:11:30.544Z,25.50
2018-07-20T10:13:58.903Z,25.50
2018-07-20T10:16:27.226Z,25.60
2018-07-20T10:18:55.609Z,25.60
2018-07-20T10:21:23.908Z,25.60
2018-07-20T10:26:20.348Z,25.70
2018-07-20T10:28:48.690Z,25.70
2018-07-20T10:31:17.535Z,25.70
2018-07-20T10:33:46.601Z,25.80
2018-07-20T10:36:14.930Z,25.80
2018-07-20T10:38:43.260Z,25.80
2018-07-20T10:41:11.593Z,25.80
2018-07-20T10:43:39.927Z,25.80
2018-07-20T10:48:36.695Z,25.90
2018-07-20T10:51:05.026Z,25.90
2018-07-20T10:53:33.340Z,25.90
2018-07-20T10:56:01.729Z,25.90
2018-07-20T10:58:30.063Z,26.00
2018-07-20T11:00:58.377Z,26.00
2018-07-20T11:03:26.715Z,26.00
2018-07-20T11:05:55.039Z,26.00
2018-07-20T11:08:23.386Z,25.90
2018-07-20T11:10:51.738Z,25.90
2018-07-20T11:13:20.026Z,25.80
2018-07-20T11:15:48.344Z,25.80
2018-07-20T11:18:16.651Z,25.80
2018-07-20T11:20:45.040Z,25.80
2018-07-20T11:23:13.367Z,25.80
2018-07-20T11:25:41.686Z,25.80
2018-07-20T11:28:09.991Z,25.80
2018-07-20T11:33:06.363Z,25.70
2018-07-20T11:35:34.675Z,25.70
2018-07-20T11:38:03.194Z,25.70
2018-07-20T11:40:31.511Z,25.70
2018-07-20T11:42:59.813Z,25.70
2018-07-20T11:45:28.140Z,25.70
2018-07-20T11:47:56.610Z,25.70
2018-07-20T11:50:24.927Z,25.70
2018-07-20T11:52:53.258Z,25.70
2018-07-20T11:55:21.626Z,25.70
2018-07-20T12:00:18.156Z,25.60
2018-07-20T12:02:46.470Z,25.60
2018-07-20T12:05:14.756Z,25.60
2018-07-20T12:10:11.189Z,25.60
2018-07-20T12:12:39.494Z,25.60
2018-07-20T12:15:07.803Z,25.60
2018-07-20T12:17:36.265Z,25.60
2018-07-20T12:20:04.594Z,25.50
2018-07-20T12:22:32.953Z,25.50
2018-07-20T12:25:01.320Z,25.50
2018-07-20T12:27:29.738Z,25.50
2018-07-20T12:32:26.126Z,25.50
2018-07-20T12:34:54.438Z,25.50
2018-07-20T12:37:22.735Z,25.50
2018-07-20T12:39:51.047Z,25.50
2018-07-20T12:42:19.376Z,25.50
2018-07-20T12:44:47.975Z,25.60
2018-07-20T12:47:16.786Z,25.50
2018-07-20T12:49:45.093Z,25.50
2018-07-20T12:52:13.388Z,25.50
2018-07-20T12:54:41.725Z,25.50
2018-07-20T12:57:10.139Z,25.50
2018-07-20T12:59:38.500Z,25.50
2018-07-20T13:02:06.979Z,25.50
2018-07-20T13:04:35.307Z,25.60
2018-07-20T13:07:03.622Z,25.50
2018-07-20T13:09:31.954Z,25.60
2018-07-20T13:12:00.329Z,25.50
2018-07-20T13:16:56.665Z,25.60
2018-07-20T13:19:25.044Z,25.60
2018-07-20T13:21:53.354Z,25.60
2018-07-20T13:24:21.655Z,25.60
2018-07-20T13:26:49.982Z,25.60
2018-07-20T13:29:18.285Z,25.60
2018-07-20T13:31:46.614Z,25.60
2018-07-20T13:34:14.922Z,25.60
2018-07-20T13:36:43.238Z,25.60
2018-07-20T13:39:11.979Z,25.60
2018-07-20T13:41:40.988Z,25.60
2018-07-20T13:44:09.356Z,25.60
2018-07-20T13:46:37.965Z,25.60
2018-07-20T13:49:06.463Z,25.60
2018-07-20T13:54:02.823Z,25.60
2018-07-20T13:56:31.131Z,25.60
2018-07-20T13:58:59.495Z,25.60
2018-07-20T14:01:27.831Z,25.60
2018-07-20T14:03:56.136Z,25.60
2018-07-20T14:06:24.455Z,25.60
2018-07-20T14:08:52.835Z,25.60
2018-07-20T14:11:21.175Z,25.60
2018-07-20T14:13:49.639Z,25.60
2018-07-20T14:16:17.978Z,25.60
2018-07-20T14:18:46.279Z,25.60
2018-07-20T14:21:14.591Z,25.60
2018-07-20T14:23:42.941Z,25.60
2018-07-20T14:26:11.231Z,25.60
2018-07-20T14:28:39.531Z,25.60
2018-07-20T14:31:08.033Z,25.60
2018-07-20T14:33:36.362Z,25.60
2018-07-20T14:36:04.675Z,25.60
2018-07-20T14:38:33.020Z,25.60
2018-07-20T14:41:01.313Z,25.60
2018-07-20T14:43:29.607Z,25.60
2018-07-20T14:45:58.030Z,25.60
2018-07-20T14:48:26.351Z,25.60
2018-07-20T14:50:54.734Z,25.60
2018-07-20T14:53:23.068Z,25.70
2018-07-20T14:55:51.537Z,25.70
2018-07-20T14:58:19.874Z,25.70
2018-07-20T15:00:48.230Z,25.60
2018-07-20T15:03:16.533Z,25.70
2018-07-20T15:05:44.830Z,25.70
2018-07-20T15:08:13.159Z,25.70
2018-07-20T15:10:41.456Z,25.70
2018-07-20T15:13:09.781Z,25.70
2018-07-20T15:15:38.157Z,25.70
2018-07-20T15:18:06.504Z,25.60
2018-07-20T15:20:34.860Z,25.70
2018-07-20T15:23:03.202Z,25.70
2018-07-20T15:30:27.662Z,25.80
2018-07-20T15:32:56.043Z,25.80
2018-07-20T15:35:24.355Z,25.80
2018-07-20T15:37:52.708Z,25.80
2018-07-20T15:40:21.039Z,25.80
2018-07-20T15:42:49.339Z,25.80
2018-07-20T15:45:17.792Z,25.80
2018-07-20T15:50:14.145Z,25.90
2018-07-20T15:55:10.570Z,25.90
2018-07-20T15:57:39.049Z,25.90
2018-07-20T16:00:07.662Z,25.90
2018-07-20T16:02:36.099Z,25.90
2018-07-20T16:05:04.571Z,25.90
2018-07-20T16:07:32.887Z,25.90
2018-07-20T16:10:01.208Z,25.90
2018-07-20T16:12:29.530Z,25.90
2018-07-20T16:14:57.920Z,25.90
2018-07-20T16:17:26.597Z,26.00
2018-07-20T16:19:54.909Z,26.00
2018-07-20T16:22:23.426Z,26.10
2018-07-20T16:24:51.749Z,26.20
2018-07-20T16:27:20.092Z,26.20
2018-07-20T16:29:48.395Z,26.30
2018-07-20T16:32:16.723Z,26.30
2018-07-20T16:34:45.206Z,26.30
2018-07-20T16:37:13.614Z,26.30
2018-07-20T16:39:41.914Z,26.30
2018-07-20T16:42:10.624Z,26.20
2018-07-20T16:44:38.934Z,26.20
2018-07-20T16:47:07.364Z,26.10
2018-07-20T16:49:35.665Z,26.00
2018-07-20T16:52:04.027Z,26.00
2018-07-20T16:54:32.334Z,25.90
2018-07-20T16:57:00.655Z,25.90
2018-07-20T16:59:28.983Z,26.00
2018-07-20T17:01:57.283Z,25.90
2018-07-20T17:04:25.618Z,25.90
2018-07-20T17:06:53.919Z,25.90
2018-07-20T17:09:22.228Z,25.80
2018-07-20T17:11:50.545Z,25.80
2018-07-20T17:14:18.872Z,25.80
2018-07-20T17:16:47.248Z,25.80
2018-07-20T17:19:15.548Z,25.80
2018-07-20T17:21:43.935Z,25.80
2018-07-20T17:24:12.237Z,25.80
2018-07-20T17:26:40.540Z,25.80
2018-07-20T17:29:08.871Z,25.80
2018-07-20T17:31:37.176Z,25.80
2018-07-20T17:34:05.595Z,25.80
2018-07-20T17:36:33.957Z,25.80
2018-07-20T17:39:02.245Z,25.80
2018-07-20T17:41:30.543Z,25.80
2018-07-20T17:43:58.902Z,25.80
2018-07-20T17:46:27.203Z,25.80
2018-07-20T17:48:55.540Z,25.80
2018-07-20T17:51:23.831Z,25.80
2018-07-20T17:53:52.142Z,25.70
2018-07-20T17:56:20.483Z,25.70
2018-07-20T17:58:48.798Z,25.60
2018-07-20T18:01:17.243Z,25.70
2018-07-20T18:03:45.668Z,25.70
2018-07-20T18:06:13.956Z,25.70
2018-07-20T18:08:42.242Z,25.70
2018-07-20T18:11:10.579Z,25.70
2018-07-20T18:13:38.934Z,25.70
2018-07-20T18:16:07.259Z,25.70
2018-07-20T18:18:35.539Z,25.70
2018-07-20T18:21:03.842Z,25.70
2018-07-20T18:23:32.138Z,25.70
2018-07-20T18:26:00.532Z,25.60
2018-07-20T18:28:28.917Z,25.60
2018-07-20T18:30:57.256Z,25.60
2018-07-20T18:33:25.790Z,25.50
2018-07-20T18:35:54.205Z,25.60
2018-07-20T18:38:22.518Z,25.60
2018-07-20T18:40:50.837Z,25.60
2018-07-20T18:43:19.159Z,25.50
2018-07-20T18:45:47.634Z,25.50
2018-07-20T18:48:15.935Z,25.50
2018-07-20T18:50:44.238Z,25.50
2018-07-20T18:53:18.232Z,25.40
2018-07-20T18:55:46.612Z,25.20
2018-07-20T18:58:14.929Z,25.00
2018-07-20T19:00:43.485Z,25.10
2018-07-20T19:03:11.807Z,25.20
2018-07-20T19:10:36.255Z,25.20
2018-07-20T19:13:04.616Z,25.20
2018-07-20T19:15:32.916Z,25.20
2018-07-20T19:18:01.229Z,25.20
2018-07-20T19:20:32.371Z,25.20
2018-07-20T19:23:00.706Z,25.20
2018-07-20T19:25:34.533Z,25.20
2018-07-20T19:28:02.938Z,25.30
2018-07-20T19:30:31.271Z,25.30
2018-07-20T19:32:59.599Z,25.30
2018-07-20T19:35:27.906Z,25.40
2018-07-20T19:37:56.298Z,25.40
2018-07-20T19:40:24.673Z,25.30
2018-07-20T19:42:55.169Z,25.20
2018-07-20T19:45:23.920Z,25.10
2018-07-20T19:47:52.291Z,25.10
2018-07-20T19:50:20.624Z,25.20
2018-07-20T19:52:49.035Z,25.20
2018-07-20T19:55:17.384Z,25.30
2018-07-20T20:00:13.835Z,25.40
2018-07-20T20:02:42.274Z,25.40
2018-07-20T20:05:10.618Z,25.40
2018-07-20T20:07:38.965Z,25.40
2018-07-20T20:12:35.661Z,25.40
2018-07-20T20:15:04.473Z,25.40
2018-07-20T20:17:34.035Z,25.50
2018-07-20T20:20:02.347Z,25.50
2018-07-20T20:22:30.649Z,25.50
2018-07-20T20:24:59.030Z,25.50
2018-07-20T20:27:27.357Z,25.50
2018-07-20T20:29:55.657Z,25.50
2018-07-20T20:32:24.024Z,25.50
2018-07-20T20:34:52.371Z,25.50
2018-07-20T20:37:20.692Z,25.50
2018-07-20T20:39:49.005Z,25.50
2018-07-20T20:42:17.371Z,25.50
2018-07-20T20:44:45.701Z,25.60
2018-07-20T20:47:13.983Z,25.50
2018-07-20T20:49:42.410Z,25.50
2018-07-20T20:52:10.764Z,25.30
2018-07-20T20:54:39.135Z,25.10
2018-07-20T20:57:07.528Z,25.00
2018-07-20T20:59:35.898Z,25.00
2018-07-20T21:02:04.250Z,25.00
2018-07-20T21:04:32.702Z,24.90
2018-07-20T21:07:01.016Z,24.80
2018-07-20T21:09:29.517Z,24.80
2018-07-20T21:11:57.968Z,24.80
2018-07-20T21:14:26.310Z,24.80
2018-07-20T21:16:54.871Z,24.80
2018-07-20T21:19:23.342Z,24.70
2018-07-20T21:21:51.737Z,24.70
2018-07-20T21:24:20.200Z,24.70
2018-07-20T21:26:48.747Z,24.70
2018-07-20T21:29:17.194Z,24.60
2018-07-20T21:31:46.047Z,24.60
2018-07-20T21:34:14.613Z,24.60
2018-07-20T21:36:43.108Z,24.60
2018-07-20T21:39:12.955Z,24.60
2018-07-20T21:41:42.346Z,24.60
2018-07-20T21:44:10.635Z,24.60
2018-07-20T21:46:39.435Z,24.50
2018-07-20T21:49:07.875Z,24.40
2018-07-20T21:51:36.594Z,24.40
2018-07-20T21:54:05.099Z,24.50
2018-07-20T21:56:33.452Z,24.50
2018-07-20T21:59:01.900Z,24.40
2018-07-20T22:01:30.424Z,24.30
2018-07-20T22:03:58.826Z,24.30
2018-07-20T22:06:27.204Z,24.20
2018-07-20T22:08:55.795Z,24.20
2018-07-20T22:11:24.199Z,24.30
2018-07-20T22:13:52.767Z,24.40
2018-07-20T22:16:21.214Z,24.30
2018-07-20T22:18:49.638Z,24.30
2018-07-20T22:21:18.166Z,24.40
2018-07-20T22:23:46.998Z,24.40
2018-07-20T22:26:15.459Z,24.30
2018-07-20T22:28:44.206Z,24.30
2018-07-20T22:31:12.564Z,24.30
2018-07-20T22:33:41.084Z,24.30
2018-07-20T22:36:09.452Z,24.30
2018-07-20T22:38:37.876Z,24.30
2018-07-20T22:41:06.251Z,24.30
2018-07-20T22:43:34.715Z,24.40
2018-07-20T22:48:31.362Z,24.40
2018-07-20T22:50:59.719Z,24.40
2018-07-20T22:53:28.031Z,24.40
2018-07-20T22:58:24.490Z,24.40
2018-07-20T23:00:53.029Z,24.40
2018-07-20T23:03:21.311Z,24.40
2018-07-20T23:05:49.739Z,24.30
2018-07-20T23:08:18.087Z,24.30
2018-07-20T23:10:46.609Z,24.30
2018-07-20T23:13:14.924Z,24.30
2018-07-20T23:15:43.256Z,24.30
2018-07-20T23:18:12.348Z,24.30
2018-07-20T23:23:08.758Z,24.30
2018-07-20T23:25:37.067Z,24.20
2018-07-20T23:28:05.702Z,24.20
2018-07-20T23:30:34.045Z,24.20
2018-07-20T23:33:02.643Z,24.10
2018-07-20T23:35:31.017Z,24.00
2018-07-20T23:37:59.361Z,23.90
2018-07-20T23:40:27.733Z,23.90
2018-07-20T23:42:56.114Z,23.80
2018-07-20T23:45:24.465Z,23.80
2018-07-20T23:47:52.801Z,23.90
2018-07-20T23:50:21.197Z,23.80
2018-07-20T23:52:49.824Z,23.80
2018-07-20T23:55:18.611Z,23.80
2018-07-20T23:57:46.974Z,23.80
